Data for 08/22/2006

Time Sea-Level Adjusted Pressure Absolute Pressure Temperature Relative Humidity Dew Point   
(mb) (inHg) (mb) (inHg) (C) (F) (%) (C) (F)
00:05 1021 30.15 850 25.1 20.9 69.6 30 2.9 37.2
00:10 1021 30.15 850 25.1 20.6 69.2 28 1.5 34.7
00:15 1021 30.15 850 25.1 20.5 68.8 30 2.2 36
00:20 1021 30.15 850 25.1 20.5 69 27 1.1 34
00:25 1021 30.15 850 25.1 20.8 69.4 27 1.2 34.2
00:30 1021 30.15 850 25.1 20.8 69.4 27 1.1 33.9
00:35 1021 30.15 850 25.1 20.7 69.2 30 2.5 36.5
00:40 1021 30.15 850 25.1 20.2 68.4 28 1.1 34
00:45 1021 30.15 850 25.1 20.4 68.8 28 1.4 34.6
00:50 1021 30.15 851 25.13 20.6 69.1 26 0.7 33.3
00:55 1021 30.15 851 25.13 20.7 69.3 29 2 35.6
01:00 1022 30.18 851 25.13 20 67.9 29 1.4 34.6
01:05 1021 30.15 851 25.13 19.4 67 31 2.2 36
01:10 1022 30.18 851 25.13 19.4 66.9 30 1.3 34.4
01:15 1021 30.15 851 25.13 19.1 66.4 32 2.3 36.2
01:20 1021 30.15 851 25.13 18.3 64.9 40 4.4 40
01:25 1021 30.15 851 25.13 17.7 63.9 35 2.3 36.2
01:30 1021 30.15 851 25.13 17.7 63.8 37 3 37.3
01:35 1021 30.15 851 25.13 18.3 64.9 33 2 35.6
01:40 1021 30.15 851 25.13 18.3 64.9 33 1.8 35.2
01:45 1022 30.18 851 25.13 18.5 65.3 32 1.5 34.7
01:50 1022 30.18 851 25.13 18.7 65.7 31 1.5 34.7
01:55 1021 30.15 851 25.13 18.7 65.6 32 1.8 35.2
02:00 1021 30.15 851 25.13 18.8 65.8 30 1.2 34.1
02:05 1021 30.15 851 25.13 19 66.2 30 1 33.8
02:10 1021 30.15 851 25.13 19.1 66.3 31 1.8 35.3
02:15 1022 30.18 851 25.13 18.8 65.8 34 2.7 36.8
02:20 1022 30.18 851 25.13 18.3 64.9 33 2 35.6
02:25 1022 30.18 851 25.13 18 64.5 36 2.7 36.9
02:30 1021 30.15 851 25.13 17.6 63.7 37 2.8 37
02:35 1021 30.15 851 25.13 17.5 63.6 35 1.9 35.5
02:40 1021 30.15 850 25.1 18 64.5 35 2.4 36.2
02:45 1021 30.15 850 25.1 17.7 63.9 34 1.8 35.3
02:50 1021 30.15 850 25.1 17.7 63.9 32 1.1 34
02:55 1021 30.15 850 25.1 17.8 64.1 33 1.3 34.3
03:00 1021 30.15 850 25.1 17.7 63.9 34 1.9 35.5
03:05 1021 30.15 850 25.1 18 64.5 30 0.4 32.8
03:10 1021 30.15 850 25.1 18.5 65.3 31 1.1 34
03:15 1021 30.15 850 25.1 19.2 66.5 29 0.9 33.6
03:20 1021 30.15 850 25.1 19.3 66.8 29 1 33.9
03:25 1021 30.15 850 25.1 19.8 67.7 28 0.9 33.7
03:30 1021 30.15 850 25.1 20 68 27 0.5 32.9
03:35 1021 30.15 850 25.1 20.5 68.9 26 0.7 33.2
03:40 1021 30.15 850 25.1 20 68 31 2.5 36.5
03:45 1021 30.15 850 25.1 18.9 66 37 3.9 39
03:50 1021 30.15 850 25.1 18.7 65.6 32 1.7 35
03:55 1021 30.15 850 25.1 18.6 65.5 32 1.7 35.1
04:00 1021 30.15 850 25.1 18.4 65.1 32 1.7 35
04:05 1021 30.15 850 25.1 18.9 65.9 31 1.7 35
04:10 1021 30.15 850 25.1 19.5 67 31 1.9 35.5
04:15 1021 30.15 850 25.1 19.1 66.3 33 2.6 36.7
04:20 1021 30.15 850 25.1 18.7 65.6 32 1.8 35.3
04:25 1021 30.15 850 25.1 18.7 65.7 33 2.3 36.1
04:30 1021 30.15 850 25.1 18.4 65.1 34 2.4 36.3
04:35 1021 30.15 850 25.1 17.9 64.3 34 2 35.7
04:40 1021 30.15 850 25.1 17.8 64.1 34 1.8 35.2
04:45 1021 30.15 850 25.1 17.7 63.9 35 2.1 35.8
04:50 1021 30.15 850 25.1 17.7 63.8 34 1.6 34.9
04:55 1021 30.15 850 25.1 18.3 64.9 33 1.6 35
05:00 1021 30.15 850 25.1 18.4 65.1 33 1.8 35.3
05:05 1021 30.15 850 25.1 18.3 64.9 32 1.3 34.3
05:10 1021 30.15 850 25.1 18.7 65.7 31 1.4 34.5
05:15 1021 30.15 850 25.1 18.6 65.4 32 1.8 35.2
05:20 1021 30.15 850 25.1 18.3 64.9 33 1.6 35
05:25 1021 30.15 850 25.1 18.2 64.8 35 2.5 36.6
05:30 1020 30.12 850 25.1 18 64.3 33 1.5 34.8
05:35 1020 30.12 850 25.1 18.3 65 32 1.5 34.6
05:40 1020 30.12 850 25.1 18.7 65.6 31 1.5 34.7
05:45 1020 30.12 850 25.1 18.9 66 31 1.7 35
05:50 1020 30.12 849 25.07 18.7 65.6 32 1.8 35.2
05:55 1020 30.12 849 25.07 18.4 65.1 32 1.6 34.9
06:00 1020 30.12 849 25.07 18.2 64.7 33 1.9 35.5
06:05 1020 30.12 849 25.07 17.7 63.9 34 1.7 35.1
06:10 1020 30.12 849 25.07 17.9 64.2 39 3.8 38.8
06:15 1020 30.12 849 25.07 18.1 64.7 32 1.2 34.1
06:20 1020 30.12 849 25.07 18.1 64.6 38 3.6 38.6
06:25 1020 30.12 849 25.07 18.3 64.9 32 1.2 34.2
06:30 1020 30.12 849 25.07 18.5 65.3 30 0.8 33.5
06:35 1020 30.12 849 25.07 19.2 66.5 29 1 33.7
06:40 1020 30.12 849 25.07 18.7 65.7 31 1.3 34.3
06:45 1020 30.12 849 25.07 18.2 64.8 35 2.6 36.6
06:50 1021 30.15 850 25.1 18.1 64.6 32 1.3 34.3
06:55 1021 30.15 850 25.1 18.3 64.9 32 1.6 34.9
07:00 1021 30.15 850 25.1 17.6 63.6 39 3.6 38.5
07:05 1021 30.15 851 25.13 15.7 60.2 46 4 39.3
07:10 1021 30.15 851 25.13 14.9 58.8 49 4.4 39.9
07:15 1022 30.18 851 25.13 14.3 57.7 50 4.1 39.4
07:20 1022 30.18 851 25.13 14.1 57.3 52 4.3 39.8
07:25 1022 30.18 851 25.13 13.9 57.1 52 4.3 39.8
07:30 1022 30.18 851 25.13 14 57.1 55 5 41
07:35 1021 30.15 851 25.13 14.2 57.6 51 4.3 39.8
07:40 1021 30.15 851 25.13 14.2 57.6 51 4.5 40
07:45 1021 30.15 851 25.13 14.8 58.7 52 5 41
07:50 1021 30.15 851 25.13 15.5 59.8 46 4 39.2
07:55 1021 30.15 851 25.13 15.8 60.5 45 3.9 39
08:00 1022 30.18 851 25.13 16.2 61.1 45 4.2 39.6
08:05 1022 30.18 851 25.13 16.8 62.2 46 5.2 41.3
08:10 1022 30.18 851 25.13 17.3 63.2 43 4.8 40.6
08:15 1022 30.18 851 25.13 17.7 63.8 42 4.8 40.6
08:20 1022 30.18 851 25.13 17.7 63.8 44 5.3 41.5
08:25 1022 30.18 851 25.13 17.5 63.5 45 5.5 41.8
08:30 1022 30.18 851 25.13 17.3 63.1 45 5.3 41.5
08:35 1022 30.18 851 25.13 17.4 63.3 44 5.2 41.4
08:40 1022 30.18 851 25.13 17.6 63.7 45 5.5 41.9
08:45 1022 30.18 851 25.13 18 64.4 47 6.8 44.2
08:50 1022 30.18 851 25.13 18.7 65.7 42 5.7 42.2
08:55 1022 30.18 851 25.13 19.4 66.8 42 6.3 43.4
09:00 1022 30.18 851 25.13 19.7 67.4 44 7.2 44.9
09:05 1021 30.15 851 25.13 20.1 68.2 38 5.5 41.9
09:10 1022 30.18 851 25.13 20.7 69.3 36 5.1 41.2
09:15 1021 30.15 851 25.13 21.3 70.4 34 5 41
09:20 1021 30.15 851 25.13 21.8 71.2 34 5.4 41.8
09:25 1021 30.15 851 25.13 22.1 71.8 31 4.5 40.1
09:30 1021 30.15 851 25.13 22.3 72.1 32 4.9 40.9
09:35 1021 30.15 851 25.13 23 73.4 31 5.1 41.1
09:40 1021 30.15 851 25.13 23.1 73.5 29 4.1 39.5
09:45 1021 30.15 851 25.13 23.5 74.3 28 4 39.3
09:50 1021 30.15 850 25.1 24.1 75.4 26 3.8 38.9
09:55 1021 30.15 850 25.1 24.1 75.5 26 3.6 38.4
10:00 1021 30.15 850 25.1 24.4 76 25 3.2 37.8
10:05 1021 30.15 850 25.1 25.1 77.1 22 2 35.6
10:10 1021 30.15 850 25.1 25.7 78.2 20 1.4 34.6
10:15 1021 30.15 850 25.1 26 78.9 21 2.3 36.2
10:20 1021 30.15 850 25.1 26 78.8 20 1.9 35.4
10:25 1021 30.15 850 25.1 26.2 79.1 21 2.3 36.2
10:30 1021 30.15 850 25.1 26.9 80.4 22 3.8 38.8
10:35 1021 30.15 850 25.1 26.8 80.3 19 1.8 35.2
10:40 1021 30.15 850 25.1 27.2 81 19 2.1 35.7
10:45 1021 30.15 850 25.1 27.5 81.5 19 2.4 36.4
10:50 1021 30.15 850 25.1 27.1 80.8 19 1.9 35.4
10:55 1021 30.15 850 25.1 27.5 81.4 19 2 35.6
11:00 1021 30.15 850 25.1 27.2 80.9 20 2.5 36.5
11:05 1021 30.15 850 25.1 27.6 81.6 18 1.2 34.1
11:10 1021 30.15 850 25.1 28.4 83.1 17 1.2 34.2
11:15 1021 30.15 850 25.1 28.6 83.4 17 1.8 35.2
11:20 1021 30.15 850 25.1 28 82.4 19 2.5 36.4
11:25 1021 30.15 850 25.1 27.8 82 19 2.3 36.1
11:30 1021 30.15 850 25.1 28.3 83 19 3 37.4
11:35 1021 30.15 850 25.1 28.5 83.3 18 2.1 35.8
11:40 1021 30.15 850 25.1 28.2 82.7 19 2.5 36.5
11:45 1021 30.15 850 25.1 27.8 82.1 18 1.8 35.3
11:50 1021 30.15 850 25.1 28.8 83.8 18 2.1 35.7
11:55 1021 30.15 850 25.1 29.3 84.8 18 2.7 36.9
12:00 1021 30.15 850 25.1 29.4 84.9 18 2.8 37
12:05 1021 30.15 850 25.1 29.3 84.8 18 2.7 36.9
12:10 1021 30.15 850 25.1 28.6 83.4 21 4.8 40.6
12:15 1021 30.15 850 25.1 29.4 84.8 17 1.7 35.1
12:20 1021 30.15 850 25.1 29.8 85.7 18 2.9 37.3
12:25 1021 30.15 850 25.1 30.2 86.3 16 1.8 35.3
12:30 1021 30.15 850 25.1 30.4 86.8 15 1.7 35.1
12:35 1021 30.15 850 25.1 30.4 86.8 16 2.3 36.1
12:40 1021 30.15 850 25.1 30.1 86.2 15 1.2 34.1
12:45 1020 30.12 850 25.1 30.4 86.7 15 1.6 34.9
12:50 1020 30.12 850 25.1 30.3 86.6 15 1.4 34.6
12:55 1020 30.12 850 25.1 30.7 87.2 15 1.2 34.1
13:00 1020 30.12 849 25.07 30.3 86.6 15 1.4 34.6
13:05 1020 30.12 849 25.07 30.6 87 15 1.3 34.4
13:10 1020 30.12 849 25.07 31.5 88.7 14 0.8 33.5
13:15 1020 30.12 849 25.07 31.3 88.3 13 -0.3 31.5
13:20 1020 30.12 849 25.07 31.3 88.4 13 0.5 32.9
13:25 1020 30.12 849 25.07 31.3 88.3 14 0.9 33.7
13:30 1020 30.12 849 25.07 31.7 89.1 11 -1.7 28.9
13:35 1020 30.12 849 25.07 31.7 89 13 -0.1 31.8
13:40 1020 30.12 849 25.07 31.9 89.3 12 -1.2 29.9
13:45 1020 30.12 849 25.07 31.8 89.2 12 -1.2 29.9
13:50 1020 30.12 849 25.07 31.2 88.1 11 -3 26.5
13:55 1020 30.12 849 25.07 31.8 89.2 12 -1.2 29.8
14:00 1020 30.12 849 25.07 32.4 90.2 11 -2 28.5
14:05 1020 30.12 849 25.07 32.5 90.4 11 -1.2 29.9
14:10 1019 30.09 849 25.07 32.8 91 11 -0.6 30.8
14:15 1019 30.09 849 25.07 32 89.6 11 -2.2 28.1
14:20 1019 30.09 849 25.07 31.3 88.3 12 -1.7 29
14:25 1019 30.09 848 25.04 31.8 89.2 10 -2.7 27.2
14:30 1019 30.09 848 25.04 31.9 89.5 11 -1.7 29
14:35 1019 30.09 848 25.04 32.5 90.5 11 -1.3 29.7
14:40 1019 30.09 848 25.04 32.9 91.3 11 -0.8 30.5
14:45 1019 30.09 848 25.04 33 91.4 11 -1.5 29.3
14:50 1019 30.09 848 25.04 33 91.3 10 -1.9 28.6
14:55 1019 30.09 848 25.04 33.3 91.9 11 -1.4 29.6
15:00 1019 30.09 848 25.04 33.2 91.7 10 -2.6 27.2
15:05 1019 30.09 848 25.04 32.7 90.9 10 -3.1 26.5
15:10 1019 30.09 848 25.04 32.9 91.2 8 -4.6 23.7
15:15 1018 30.06 848 25.04 32.6 90.6 12 0.3 32.5
15:20 1018 30.06 848 25.04 31.9 89.3 12 -1 30.2
15:25 1018 30.06 848 25.04 32.2 89.9 10 -2.3 27.8
15:30 1018 30.06 848 25.04 32.2 89.9 11 -1.4 29.6
15:35 1018 30.06 847 25.01 32.3 90.2 11 -1.8 28.8
15:40 1018 30.06 847 25.01 32.4 90.2 11 -1.1 30
15:45 1018 30.06 847 25.01 32.6 90.6 12 -0.4 31.3
15:50 1018 30.06 847 25.01 32.6 90.6 12 -0.4 31.2
15:55 1018 30.06 847 25.01 31.9 89.5 11 -1.4 29.4
16:00 1018 30.06 847 25.01 31.9 89.4 11 -1.3 29.6
16:05 1018 30.06 847 25.01 32.3 90.1 11 -1.9 28.5
16:10 1018 30.06 847 25.01 32.2 89.9 11 -1.1 30
16:15 1018 30.06 847 25.01 32.2 90 12 -0.1 31.8
16:20 1018 30.06 847 25.01 32.2 89.9 12 -0.8 30.5
16:25 1018 30.06 847 25.01 31.7 89.1 11 -1.4 29.5
16:30 1018 30.06 847 25.01 32.2 89.9 12 -0.5 31.1
16:35 1018 30.06 847 25.01 32.6 90.7 11 -0.8 30.5
16:40 1018 30.06 847 25.01 32.5 90.5 11 -0.9 30.3
16:45 1018 30.06 847 25.01 31.8 89.3 12 -0.7 30.7
16:50 1018 30.06 847 25.01 31.5 88.7 12 -0.5 31.2
16:55 1018 30.06 847 25.01 31.4 88.6 12 -1.5 29.3
17:00 1018 30.06 847 25.01 32.1 89.8 12 -1 30.3
17:05 1018 30.06 847 25.01 32.6 90.7 11 -1.8 28.8
17:10 1018 30.06 847 25.01 31.8 89.2 12 -0.9 30.4
17:15 1018 30.06 847 25.01 31.6 88.9 11 -1.5 29.2
17:20 1018 30.06 847 25.01 31.2 88.2 11 -1.8 28.7
17:25 1018 30.06 847 25.01 30.9 87.6 12 -1.6 29.1
17:30 1018 30.06 847 25.01 30.8 87.4 12 -1.5 29.4
17:35 1018 30.06 847 25.01 30.6 87.1 12 -1.9 28.6
17:40 1018 30.06 847 25.01 30.2 86.4 12 -1.5 29.3
17:45 1018 30.06 847 25.01 30.2 86.4 11 -2.6 27.3
17:50 1018 30.06 847 25.01 30.4 86.7 12 -2.3 27.9
17:55 1018 30.06 847 25.01 30.2 86.3 12 -1.9 28.6
18:00 1018 30.06 847 25.01 30.1 86.2 12 -1.8 28.7
18:05 1018 30.06 847 25.01 30.1 86.1 12 -1.8 28.7
18:10 1018 30.06 847 25.01 29.9 85.8 12 -2.8 27
18:15 1018 30.06 847 25.01 29.9 85.8 13 -0.6 30.8
18:20 1018 30.06 847 25.01 29.9 85.9 13 -1.2 29.9
18:25 1018 30.06 847 25.01 30 86 12 -2.4 27.7
18:30 1018 30.06 847 25.01 30.1 86.1 12 -1.8 28.7
18:35 1018 30.06 847 25.01 30.1 86.2 12 -2.3 27.8
18:40 1018 30.06 847 25.01 30 86 12 -1.8 28.7
18:45 1018 30.06 847 25.01 30 85.9 12 -2.1 28.2
18:50 1018 30.06 847 25.01 29.7 85.5 15 1.1 33.9
18:55 1018 30.06 847 25.01 29.2 84.6 20 4.3 39.7
19:00 1018 30.06 847 25.01 28.6 83.5 15 -0.4 31.3
19:05 1017 30.03 847 25.01 28.9 84 15 -0.4 31.2
19:10 1017 30.03 847 25.01 29.1 84.3 13 -2.2 28
19:15 1017 30.03 847 25.01 29.3 84.8 12 -2.6 27.4
19:20 1017 30.03 847 25.01 29.4 84.9 12 -2.4 27.7
19:25 1017 30.03 847 25.01 29 84.2 14 -0.6 31
19:30 1017 30.03 847 25.01 27.8 82 24 5.5 41.9
19:35 1018 30.06 847 25.01 26.6 79.8 23 3.8 38.8
19:40 1018 30.06 847 25.01 26.4 79.4 21 2.5 36.5
19:45 1018 30.06 847 25.01 26.6 79.9 23 3.9 39.1
19:50 1018 30.06 847 25.01 26.2 79.1 22 3.3 38
19:55 1018 30.06 847 25.01 25.7 78.3 23 3.1 37.6
20:00 1018 30.06 847 25.01 25.5 77.9 20 1 33.9
20:05 1018 30.06 847 25.01 27.8 82.1 12 -3.6 25.6
20:10 1018 30.06 847 25.01 28.7 83.7 12 -3 26.6
20:15 1018 30.06 847 25.01 28.9 83.9 12 -3.4 25.8
20:20 1017 30.03 847 25.01 28.8 83.8 13 -1.8 28.7
20:25 1017 30.03 847 25.01 28.3 82.9 13 -2.3 27.9
20:30 1017 30.03 847 25.01 27.9 82.1 14 -2 28.4
20:35 1017 30.03 847 25.01 27.5 81.6 14 -2.3 27.9
20:40 1017 30.03 847 25.01 27.6 81.6 16 -0.1 31.9
20:45 1017 30.03 847 25.01 27.9 82.2 15 -1.2 29.8
20:50 1017 30.03 847 25.01 27.3 81.1 16 -0.8 30.5
20:55 1017 30.03 847 25.01 26.2 79.2 16 -1.4 29.4
21:00 1018 30.06 847 25.01 25.5 77.9 21 1.5 34.7
21:05 1018 30.06 847 25.01 24.9 76.7 20 0.3 32.6
21:10 1017 30.03 847 25.01 24.2 75.6 20 -0 31.9
21:15 1018 30.06 847 25.01 23.9 74.9 24 2.2 35.9
21:20 1018 30.06 847 25.01 23.9 74.9 20 -0.1 31.7
21:25 1018 30.06 847 25.01 23.8 74.8 20 -0.1 31.9
21:30 1018 30.06 847 25.01 23.9 75.1 20 0 32
21:35 1018 30.06 847 25.01 24.2 75.5 20 0.2 32.4
21:40 1018 30.06 847 25.01 24.2 75.5 21 0.5 32.9
21:45 1018 30.06 847 25.01 24.1 75.3 22 1.3 34.3
21:50 1018 30.06 847 25.01 24.1 75.3 21 0.3 32.6
21:55 1018 30.06 847 25.01 23.6 74.5 22 0.8 33.5
22:00 1018 30.06 847 25.01 23.1 73.6 19 -1.3 29.6
22:05 1018 30.06 847 25.01 23.5 74.3 21 -0.1 31.8
22:10 1018 30.06 847 25.01 23.3 73.9 21 0.1 32.3
22:15 1018 30.06 847 25.01 23.4 74 22 0.4 32.8
22:20 1018 30.06 847 25.01 23.7 74.6 20 -0.5 31.1
22:25 1018 30.06 848 25.04 23.6 74.5 22 1.2 34.1
22:30 1018 30.06 847 25.01 23.2 73.7 23 0.9 33.7
22:35 1018 30.06 847 25.01 23.1 73.5 23 1.3 34.4
22:40 1018 30.06 847 25.01 23.2 73.8 24 1.9 35.4
22:45 1018 30.06 847 25.01 23.5 74.4 27 3.8 38.8
22:50 1018 30.06 847 25.01 22.9 73.3 28 3.7 38.6
22:55 1018 30.06 848 25.04 22.3 72.1 23 0.5 33
23:00 1018 30.06 847 25.01 22.7 72.9 24 1.2 34.2
23:05 1018 30.06 847 25.01 22.4 72.2 23 0.4 32.7
23:10 1018 30.06 847 25.01 22.2 72 25 1.4 34.6
23:15 1018 30.06 847 25.01 22.3 72.1 23 0.3 32.6
23:20 1018 30.06 848 25.04 21.8 71.3 30 3.6 38.6
23:25 1018 30.06 847 25.01 21.3 70.3 24 -0.1 31.9
23:30 1018 30.06 848 25.04 21.5 70.7 22 -1.1 30.1
23:35 1018 30.06 848 25.04 21.7 71 24 0.3 32.6
23:40 1018 30.06 848 25.04 21.5 70.7 26 1.1 34.1
23:45 1019 30.09 848 25.04 21.1 69.9 24 -0.3 31.4
23:50 1019 30.09 848 25.04 20.5 68.8 25 -0.3 31.5
23:55 1019 30.09 848 25.04 20.2 68.3 29 1.9 35.4
24:00 1019 30.09 848 25.04 19.4 66.9 30 1.5 34.6